This is the latest recevied weather packets stored in our database for station/object S57PNX-8. If no packets are shown the sender has not sent any weather packets the latest 10 day(s).
| Time | Temp. | Humidity | Pressure | Rain* | Wind** | Luminosity | Snow |
|---|---|---|---|---|---|---|---|
| 1788299793 | 20° C | 53% | 1025.9 hPa | - | - | - | - |
| 1788298894 | 20.56° C | 53% | 1025.9 hPa | - | - | - | - |
| 1788297995 | 20.56° C | 53% | 1025.8 hPa | - | - | - | - |
| 1788297096 | 20.56° C | 52% | 1025.7 hPa | - | - | - | - |
| 1788296197 | 20.56° C | 52% | 1025.8 hPa | - | - | - | - |
| 1788295293 | 21.11° C | 52% | 1025.8 hPa | - | - | - | - |
| 1788294401 | 21.11° C | 51% | 1025.7 hPa | - | - | - | - |
| 1788293495 | 21.11° C | 51% | 1025.6 hPa | - | - | - | - |
| 1788292595 | 21.67° C | 50% | 1025.5 hPa | - | - | - | - |
| 1788291696 | 21.67° C | 49% | 1025.4 hPa | - | - | - | - |
| 1788290797 | 22.22° C | 48% | 1025.2 hPa | - | - | - | - |
| 1788289898 | 22.22° C | 47% | 1025.3 hPa | - | - | - | - |
| 1788289000 | 22.78° C | 46% | 1025.4 hPa | - | - | - | - |
| 1788288101 | 23.33° C | 46% | 1025.4 hPa | - | - | - | - |
| 1788287202 | 23.89° C | 45% | 1025.2 hPa | - | - | - | - |
| 1788286311 | 24.44° C | 44% | 1025.1 hPa | - | - | - | - |
| 1788285405 | 25.56° C | 44% | 1025.1 hPa | - | - | - | - |
| 1788284505 | 26.11° C | 43% | 1025 hPa | - | - | - | - |
| 1788283607 | 27.78° C | 41% | 1025 hPa | - | - | - | - |
| 1788282707 | 28.89° C | 39% | 1025 hPa | - | - | - | - |
| 1788281809 | 31.11° C | 36% | 1025.1 hPa | - | - | - | - |
| 1788281453 | 31.67° C | 34% | 1025.1 hPa | - | - | - | - |
| 1788280554 | 31.67° C | 35% | 1025.3 hPa | - | - | - | - |
| 1788279654 | 34.44° C | 31% | 1025.2 hPa | - | - | - | - |
| 1788278755 | 35° C | 31% | 1025.4 hPa | - | - | - | - |
* Rain since midnight (hover to see other rain measurements)
** Current wind speed in m/s (hover to see current wind gust speed)